Algonquin, Illinois
Current Conditions -  °F | °C
As of 9:52 PM on Tuesday 25 Nov 2014 (Local Time) from KDPA Reporting Station
Haze Haze  
Wind Chill:   Ceiling: Unl
Heat Index: 16°   Visibility: 6mi
Dew Point: 13°   Wind: 5mph
Humidity: 88%   Direction: 160°SSE
Pressure: 30.19"   Gusts: NA
Location:  42.17°N, 88.29°W
Report Text: KDPA 260352Z 16004KT 6SM BR SCT011 M09/M11 A3019 RMK AO2 SLP235 T10891106
Loading
Personal Weather Stations






























Interactive Weather Map New forecast layout! Learn more

10-Day Weather Forecast

Advertisements
Track Severe Weather on mobile